createdAt,value
2018-09-01T00:01:22.957Z,1.50
2018-09-01T00:03:49.624Z,1.63
2018-09-01T00:06:16.283Z,1.57
2018-09-01T00:08:42.954Z,1.40
2018-09-01T00:11:09.602Z,1.40
2018-09-01T00:13:36.286Z,1.50
2018-09-01T00:16:02.967Z,1.63
2018-09-01T00:18:29.631Z,1.73
2018-09-01T00:20:56.289Z,1.33
2018-09-01T00:23:23.025Z,1.00
2018-09-01T00:25:49.699Z,1.60
2018-09-01T00:28:16.330Z,1.47
2018-09-01T00:30:43.087Z,1.40
2018-09-01T00:33:10.465Z,1.67
2018-09-01T00:35:37.109Z,1.50
2018-09-01T00:38:03.870Z,1.60
2018-09-01T00:40:30.534Z,1.50
2018-09-01T00:42:57.265Z,1.87
2018-09-01T00:45:23.960Z,1.57
2018-09-01T00:47:50.651Z,1.57
2018-09-01T00:50:17.323Z,1.57
2018-09-01T00:52:43.997Z,1.87
2018-09-01T00:55:10.695Z,1.50
2018-09-01T00:57:38.224Z,1.60
2018-09-01T01:00:04.929Z,1.50
2018-09-01T01:02:31.620Z,1.80
2018-09-01T01:04:59.102Z,1.70
2018-09-01T01:07:25.784Z,1.50
2018-09-01T01:09:52.555Z,1.60
2018-09-01T01:12:20.016Z,1.50
2018-09-01T01:14:46.686Z,1.67
2018-09-01T01:17:13.401Z,2.10
2018-09-01T01:19:40.186Z,1.80
2018-09-01T01:22:06.932Z,1.70
2018-09-01T01:24:33.637Z,1.83
2018-09-01T01:27:00.321Z,1.80
2018-09-01T01:29:26.954Z,1.73
2018-09-01T01:31:54.468Z,1.93
2018-09-01T01:34:21.905Z,2.00
2018-09-01T01:36:48.578Z,2.37
2018-09-01T01:39:15.319Z,2.37
2018-09-01T01:41:42.009Z,1.90
2018-09-01T01:44:08.743Z,1.80
2018-09-01T01:46:35.410Z,1.87
2018-09-01T01:49:03.001Z,2.07
2018-09-01T01:51:29.649Z,2.03
2018-09-01T01:53:56.339Z,2.20
2018-09-01T01:56:23.022Z,2.03
2018-09-01T01:58:49.706Z,2.03
2018-09-01T02:01:16.349Z,2.10
2018-09-01T02:03:43.171Z,1.97
2018-09-01T02:06:09.818Z,1.80
2018-09-01T02:08:36.447Z,1.60
2018-09-01T02:11:03.191Z,2.30
2018-09-01T02:13:29.824Z,1.87
2018-09-01T02:15:56.463Z,2.10
2018-09-01T02:18:23.115Z,1.80
2018-09-01T02:20:49.728Z,1.90
2018-09-01T02:23:16.534Z,2.00
2018-09-01T02:25:43.218Z,1.87
2018-09-01T02:28:10.702Z,2.10
2018-09-01T02:30:37.431Z,2.17
2018-09-01T02:33:04.106Z,1.97
2018-09-01T02:35:31.489Z,2.20
2018-09-01T02:37:58.145Z,2.33
2018-09-01T02:40:24.804Z,1.93
2018-09-01T02:42:51.593Z,2.50
2018-09-01T02:45:18.237Z,2.50
2018-09-01T02:47:46.141Z,2.10
2018-09-01T02:50:12.873Z,2.53
2018-09-01T02:52:39.512Z,3.00
2018-09-01T02:55:06.223Z,2.40
2018-09-01T02:57:32.886Z,2.40
2018-09-01T02:59:59.542Z,2.40
2018-09-01T03:02:26.266Z,2.73
2018-09-01T03:04:52.940Z,3.00
2018-09-01T03:07:19.730Z,3.03
2018-09-01T03:09:46.373Z,3.00
2018-09-01T03:12:13.042Z,2.87
2018-09-01T03:14:39.766Z,3.27
2018-09-01T03:17:06.406Z,3.17
2018-09-01T03:19:33.077Z,3.50
2018-09-01T03:21:59.762Z,2.90
2018-09-01T03:24:26.384Z,3.47
2018-09-01T03:26:53.105Z,3.73
2018-09-01T03:29:20.531Z,3.70
2018-09-01T03:31:47.192Z,3.63
2018-09-01T03:34:13.888Z,3.63
2018-09-01T03:36:40.667Z,3.80
2018-09-01T03:39:07.297Z,3.97
2018-09-01T03:41:33.997Z,3.30
2018-09-01T03:44:00.696Z,4.03
2018-09-01T03:46:28.102Z,3.50
2018-09-01T03:48:54.799Z,3.60
2018-09-01T03:51:22.268Z,3.70
2018-09-01T03:53:49.728Z,4.00
2018-09-01T03:56:16.444Z,4.27
2018-09-01T03:58:43.117Z,3.87
2018-09-01T04:01:09.858Z,4.77
2018-09-01T04:03:36.573Z,4.10
2018-09-01T04:06:03.997Z,4.03
2018-09-01T04:08:30.653Z,3.90
2018-09-01T04:10:57.339Z,4.17
2018-09-01T04:13:24.007Z,3.40
2018-09-01T04:15:50.867Z,4.20
2018-09-01T04:18:17.577Z,4.57
2018-09-01T04:20:44.235Z,4.50
2018-09-01T04:23:11.053Z,4.97
2018-09-01T04:25:37.778Z,4.60
2018-09-01T04:28:04.485Z,4.13
2018-09-01T04:30:31.960Z,4.70
2018-09-01T04:32:58.609Z,4.53
2018-09-01T04:35:25.300Z,4.50
2018-09-01T04:37:52.140Z,4.10
2018-09-01T04:40:19.592Z,4.37
2018-09-01T04:42:46.291Z,4.37
2018-09-01T04:45:13.095Z,4.47
2018-09-01T04:47:39.752Z,4.23
2018-09-01T04:50:07.195Z,4.20
2018-09-01T04:52:34.612Z,3.83
2018-09-01T04:55:01.294Z,4.10
2018-09-01T04:57:28.725Z,4.07
2018-09-01T04:59:55.387Z,3.60
2018-09-01T05:02:22.790Z,3.83
2018-09-01T05:04:49.417Z,3.83
2018-09-01T05:07:16.081Z,3.90
2018-09-01T05:09:42.730Z,3.90
2018-09-01T05:12:09.413Z,3.73
2018-09-01T05:14:36.390Z,4.07
2018-09-01T05:17:03.312Z,4.03
2018-09-01T05:19:30.184Z,3.63
2018-09-01T05:21:56.965Z,3.43
2018-09-01T05:24:24.416Z,3.73
2018-09-01T05:26:51.072Z,3.77
2018-09-01T05:29:17.800Z,3.90
2018-09-01T05:31:45.343Z,3.47
2018-09-01T05:34:12.030Z,3.23
2018-09-01T05:36:38.807Z,3.50
2018-09-01T05:39:05.391Z,3.33
2018-09-01T05:41:32.902Z,3.43
2018-09-01T05:43:59.616Z,2.93
2018-09-01T05:46:26.338Z,3.40
2018-09-01T05:48:53.727Z,3.20
2018-09-01T05:51:20.446Z,2.97
2018-09-01T05:53:47.121Z,3.43
2018-09-01T05:56:13.788Z,3.23
2018-09-01T05:58:40.521Z,3.40
2018-09-01T06:01:07.233Z,3.37
2018-09-01T06:03:33.943Z,3.40
2018-09-01T06:06:00.701Z,3.40
2018-09-01T06:08:28.035Z,3.17
2018-09-01T06:10:54.681Z,3.60
2018-09-01T06:13:21.369Z,3.50
2018-09-01T06:15:48.053Z,3.50
2018-09-01T06:18:14.712Z,3.20
2018-09-01T06:20:41.350Z,3.43
2018-09-01T06:23:08.025Z,3.43
2018-09-01T06:25:34.790Z,3.47
2018-09-01T06:28:01.650Z,3.23
2018-09-01T06:30:28.407Z,3.20
2018-09-01T06:32:55.380Z,3.33
2018-09-01T06:35:22.736Z,3.10
2018-09-01T06:37:49.475Z,3.30
2018-09-01T06:40:16.352Z,3.20
2018-09-01T06:42:43.762Z,3.17
2018-09-01T06:45:10.932Z,3.40
2018-09-01T06:47:37.753Z,3.03
2018-09-01T06:50:04.462Z,2.70
2018-09-01T06:52:31.097Z,2.80
2018-09-01T06:54:58.629Z,2.90
2018-09-01T06:57:25.260Z,2.70
2018-09-01T06:59:51.949Z,2.62
2018-09-01T07:02:18.760Z,2.47
2018-09-01T07:04:45.520Z,2.65
2018-09-01T07:07:12.324Z,2.37
2018-09-01T07:09:39.006Z,2.22
2018-09-01T07:12:05.676Z,2.20
2018-09-01T07:14:32.471Z,2.17
2018-09-01T07:17:00.000Z,2.50
2018-09-01T07:19:26.664Z,2.50
2018-09-01T07:21:54.134Z,2.30
2018-09-01T07:24:21.125Z,2.15
2018-09-01T07:26:47.984Z,2.30
2018-09-01T07:29:14.640Z,2.33
2018-09-01T07:31:41.396Z,2.17
2018-09-01T07:34:08.094Z,2.37
2018-09-01T07:36:34.772Z,2.15
2018-09-01T07:39:02.234Z,2.05
2018-09-01T07:41:28.909Z,2.20
2018-09-01T07:43:56.329Z,2.20
2018-09-01T07:46:24.303Z,2.33
2018-09-01T07:48:50.957Z,2.00
2018-09-01T07:51:17.866Z,2.40
2018-09-01T07:53:44.574Z,2.45
2018-09-01T07:56:11.416Z,2.20
2018-09-01T07:58:38.016Z,2.28
2018-09-01T08:01:04.732Z,2.25
2018-09-01T08:03:31.428Z,2.45
2018-09-01T08:05:58.081Z,2.00
2018-09-01T08:08:24.869Z,2.22
2018-09-01T08:10:51.666Z,2.20
2018-09-01T08:13:18.315Z,2.33
2018-09-01T08:15:45.115Z,2.37
2018-09-01T08:18:11.845Z,2.58
2018-09-01T08:20:38.689Z,2.10
2018-09-01T08:23:05.468Z,2.30
2018-09-01T08:25:32.201Z,2.20
2018-09-01T08:27:59.009Z,2.47
2018-09-01T08:30:25.743Z,2.45
2018-09-01T08:32:52.501Z,2.33
2018-09-01T08:35:19.272Z,2.40
2018-09-01T08:37:46.780Z,2.53
2018-09-01T08:40:13.504Z,2.15
2018-09-01T08:42:40.212Z,2.33
2018-09-01T08:45:07.892Z,2.35
2018-09-01T08:47:34.591Z,2.20
2018-09-01T08:50:01.279Z,2.30
2018-09-01T08:52:28.045Z,2.25
2018-09-01T08:54:54.755Z,2.25
2018-09-01T08:57:22.240Z,2.20
2018-09-01T08:59:49.202Z,2.25
2018-09-01T09:02:17.552Z,2.20
2018-09-01T09:04:45.208Z,2.20
2018-09-01T09:07:12.607Z,2.47
2018-09-01T09:09:40.121Z,2.08
2018-09-01T09:12:06.788Z,2.10
2018-09-01T09:14:33.519Z,2.17
2018-09-01T09:17:00.291Z,2.05
2018-09-01T09:19:26.935Z,2.30
2018-09-01T09:21:53.623Z,2.08
2018-09-01T09:24:20.293Z,1.85
2018-09-01T09:26:47.151Z,2.40
2018-09-01T09:29:13.800Z,2.15
2018-09-01T09:31:40.450Z,2.20
2018-09-01T09:34:07.209Z,2.22
2018-09-01T09:36:34.638Z,2.10
2018-09-01T09:39:16.287Z,2.30
2018-09-01T09:41:42.967Z,2.28
2018-09-01T09:44:09.606Z,2.20
2018-09-01T09:46:36.418Z,2.60
2018-09-01T09:49:03.115Z,2.58
2018-09-01T09:51:30.528Z,2.30
2018-09-01T09:53:57.231Z,2.40
2018-09-01T09:56:23.910Z,2.25
2018-09-01T09:58:51.397Z,2.30
2018-09-01T10:01:18.258Z,2.00
2018-09-01T10:03:45.029Z,1.80
2018-09-01T10:06:12.455Z,1.80
2018-09-01T10:08:39.125Z,2.00
2018-09-01T10:11:05.849Z,1.95
2018-09-01T10:13:32.525Z,2.12
2018-09-01T10:15:59.979Z,2.10
2018-09-01T10:18:26.613Z,2.00
2018-09-01T10:20:53.289Z,2.20
2018-09-01T10:23:20.730Z,1.85
2018-09-01T10:25:47.402Z,2.22
2018-09-01T10:28:14.124Z,1.87
2018-09-01T10:30:41.535Z,2.17
2018-09-01T10:33:08.204Z,1.77
2018-09-01T10:35:35.638Z,1.92
2018-09-01T10:38:02.356Z,2.42
2018-09-01T10:40:29.040Z,2.00
2018-09-01T10:42:55.735Z,2.10
2018-09-01T10:45:22.501Z,2.00
2018-09-01T10:47:49.870Z,2.30
2018-09-01T10:50:16.670Z,1.98
2018-09-01T10:52:43.370Z,1.95
2018-09-01T10:55:10.028Z,1.92
2018-09-01T10:57:38.053Z,2.40
2018-09-01T11:00:04.927Z,1.85
2018-09-01T11:02:32.038Z,2.05
2018-09-01T11:04:59.057Z,1.73
2018-09-01T11:07:25.986Z,2.00
2018-09-01T11:09:52.714Z,2.22
2018-09-01T11:12:20.097Z,2.00
2018-09-01T11:14:46.813Z,2.08
2018-09-01T11:17:14.167Z,2.05
2018-09-01T11:19:41.584Z,2.05
2018-09-01T11:22:08.431Z,2.08
2018-09-01T11:24:35.098Z,1.77
2018-09-01T11:27:02.517Z,1.73
2018-09-01T11:29:29.203Z,1.80
2018-09-01T11:31:55.909Z,1.98
2018-09-01T11:34:24.041Z,2.05
2018-09-01T11:36:50.850Z,2.12
2018-09-01T11:39:18.357Z,2.05
2018-09-01T11:41:45.370Z,2.08
2018-09-01T11:44:12.830Z,1.95
2018-09-01T11:46:39.499Z,2.28
2018-09-01T11:49:06.139Z,2.00
2018-09-01T11:51:32.916Z,1.73
2018-09-01T11:53:59.556Z,1.80
2018-09-01T11:56:26.190Z,1.70
2018-09-01T11:58:52.947Z,2.03
2018-09-01T12:01:19.610Z,1.90
2018-09-01T12:03:46.238Z,1.73
2018-09-01T12:06:12.951Z,2.22
2018-09-01T12:08:39.668Z,2.10
2018-09-01T12:11:06.390Z,1.92
2018-09-01T12:13:33.199Z,2.00
2018-09-01T12:16:00.634Z,1.80
2018-09-01T12:18:28.026Z,1.73
2018-09-01T12:20:54.712Z,1.98
2018-09-01T12:23:21.403Z,1.90
2018-09-01T12:25:48.234Z,1.98
2018-09-01T12:28:15.199Z,2.00
2018-09-01T12:30:42.112Z,1.92
2018-09-01T12:33:09.633Z,1.95
2018-09-01T12:35:36.277Z,2.10
2018-09-01T12:38:03.690Z,1.87
2018-09-01T12:40:30.364Z,2.17
2018-09-01T12:42:57.006Z,2.20
2018-09-01T12:48:05.091Z,1.85
2018-09-01T12:50:31.760Z,2.03
2018-09-01T12:52:59.289Z,1.90
2018-09-01T12:55:26.009Z,1.87
2018-09-01T12:57:53.424Z,2.00
2018-09-01T13:00:20.158Z,2.03
2018-09-01T13:02:47.641Z,1.98
2018-09-01T13:05:14.336Z,2.15
2018-09-01T13:07:41.031Z,2.25
2018-09-01T13:10:08.457Z,2.00
2018-09-01T13:12:35.114Z,1.70
2018-09-01T13:15:02.669Z,1.90
2018-09-01T13:17:29.384Z,1.80
2018-09-01T13:19:56.025Z,1.90
2018-09-01T13:22:22.770Z,1.92
2018-09-01T13:24:49.425Z,1.70
2018-09-01T13:27:16.960Z,2.12
2018-09-01T13:29:43.649Z,2.00
2018-09-01T13:32:11.101Z,1.85
2018-09-01T13:34:37.823Z,1.55
2018-09-01T13:37:04.460Z,1.80
2018-09-01T13:39:31.190Z,2.20
2018-09-01T13:41:57.842Z,2.20
2018-09-01T13:44:24.540Z,2.00
2018-09-01T13:46:51.268Z,1.70
2018-09-01T13:49:18.058Z,2.10
2018-09-01T13:51:44.757Z,1.95
2018-09-01T13:54:11.418Z,1.73
2018-09-01T13:56:38.087Z,1.92
2018-09-01T13:59:04.901Z,2.00
2018-09-01T14:01:31.556Z,2.25
2018-09-01T14:03:58.243Z,1.90
2018-09-01T14:06:25.060Z,1.77
2018-09-01T14:08:52.532Z,2.40
2018-09-01T14:11:19.183Z,2.00
2018-09-01T14:13:45.843Z,2.58
2018-09-01T14:16:12.659Z,2.35
2018-09-01T14:18:39.347Z,2.20
2018-09-01T14:21:06.032Z,2.20
2018-09-01T14:23:32.717Z,2.10
2018-09-01T14:25:59.354Z,2.05
2018-09-01T14:28:26.060Z,1.90
2018-09-01T14:30:52.830Z,2.10
2018-09-01T14:33:19.507Z,2.20
2018-09-01T14:35:47.001Z,2.35
2018-09-01T14:38:13.720Z,2.70
2018-09-01T14:40:40.408Z,2.42
2018-09-01T14:43:07.095Z,2.35
2018-09-01T14:45:33.760Z,2.05
2018-09-01T14:48:00.438Z,1.83
2018-09-01T14:50:27.112Z,1.67
2018-09-01T14:52:54.052Z,1.95
2018-09-01T14:55:20.710Z,2.35
2018-09-01T14:57:47.369Z,1.70
2018-09-01T15:00:14.246Z,2.15
2018-09-01T15:02:40.892Z,1.92
2018-09-01T15:05:07.588Z,1.92
2018-09-01T15:07:34.285Z,2.08
2018-09-01T15:10:01.708Z,2.20
2018-09-01T15:12:28.497Z,2.22
2018-09-01T15:14:55.180Z,2.10
2018-09-01T15:17:21.835Z,2.20
2018-09-01T15:19:48.541Z,1.75
2018-09-01T15:22:15.244Z,1.90
2018-09-01T15:24:41.918Z,1.83
2018-09-01T15:27:08.600Z,2.00
2018-09-01T15:29:36.150Z,1.90
2018-09-01T15:32:03.616Z,1.90
2018-09-01T15:34:31.112Z,1.90
2018-09-01T15:36:57.827Z,1.90
2018-09-01T15:39:25.226Z,2.28
2018-09-01T15:41:51.987Z,1.98
2018-09-01T15:44:18.692Z,2.03
2018-09-01T15:46:45.380Z,2.30
2018-09-01T15:49:12.025Z,2.00
2018-09-01T15:51:38.746Z,2.60
2018-09-01T15:54:05.486Z,2.15
2018-09-01T15:56:32.352Z,2.10
2018-09-01T15:58:58.991Z,2.08
2018-09-01T16:01:25.709Z,1.70
2018-09-01T16:03:52.412Z,2.30
2018-09-01T16:06:19.068Z,2.00
2018-09-01T16:08:45.752Z,2.10
2018-09-01T16:11:12.408Z,1.80
2018-09-01T16:13:39.834Z,1.80
2018-09-01T16:16:06.522Z,1.90
2018-09-01T16:18:33.200Z,2.00
2018-09-01T16:20:59.874Z,2.22
2018-09-01T16:23:27.235Z,2.22
2018-09-01T16:25:54.706Z,1.92
2018-09-01T16:28:21.384Z,1.92
2018-09-01T16:30:48.811Z,1.77
2018-09-01T16:33:15.481Z,1.62
2018-09-01T16:35:42.301Z,1.95
2018-09-01T16:38:09.425Z,2.10
2018-09-01T16:40:36.846Z,1.90
2018-09-01T16:43:04.911Z,2.28
2018-09-01T16:45:31.651Z,2.25
2018-09-01T16:47:58.311Z,1.73
2018-09-01T16:50:25.293Z,2.20
2018-09-01T16:52:52.009Z,2.35
2018-09-01T16:55:19.532Z,1.85
2018-09-01T16:57:46.701Z,1.95
2018-09-01T17:00:14.189Z,1.98
2018-09-01T17:02:41.667Z,2.08
2018-09-01T17:05:09.683Z,2.30
2018-09-01T17:07:37.054Z,2.10
2018-09-01T17:10:04.561Z,1.98
2018-09-01T17:12:32.324Z,2.12
2018-09-01T17:15:00.102Z,1.83
2018-09-01T17:17:27.345Z,1.92
2018-09-01T17:19:54.498Z,2.20
2018-09-01T17:22:21.632Z,1.93
2018-09-01T17:24:49.349Z,2.27
2018-09-01T17:27:16.355Z,2.10
2018-09-01T17:29:43.519Z,1.90
2018-09-01T17:32:10.387Z,2.00
2018-09-01T17:34:38.405Z,1.90
2018-09-01T17:37:05.806Z,2.00
2018-09-01T17:39:32.883Z,2.07
2018-09-01T17:41:59.573Z,1.80
2018-09-01T17:44:27.063Z,2.20
2018-09-01T17:46:54.621Z,2.20
2018-09-01T17:49:21.277Z,1.80
2018-09-01T17:51:47.964Z,2.40
2018-09-01T17:54:15.513Z,2.10
2018-09-01T17:56:42.190Z,2.20
2018-09-01T17:59:08.842Z,2.23
2018-09-01T18:01:36.411Z,2.03
2018-09-01T18:04:03.839Z,2.00
2018-09-01T18:06:30.985Z,2.27
2018-09-01T18:08:58.164Z,2.23
2018-09-01T18:11:24.903Z,2.30
2018-09-01T18:13:52.474Z,2.40
2018-09-01T18:16:19.835Z,2.30
2018-09-01T18:18:48.406Z,2.20
2018-09-01T18:21:15.370Z,2.23
2018-09-01T18:23:42.030Z,2.00
2018-09-01T18:26:09.061Z,2.10
2018-09-01T18:28:35.844Z,2.03
2018-09-01T18:31:02.527Z,2.20
2018-09-01T18:33:29.962Z,2.20
2018-09-01T18:35:57.477Z,2.27
2018-09-01T18:38:24.472Z,2.30
2018-09-01T18:40:52.042Z,2.20
2018-09-01T18:43:18.702Z,2.37
2018-09-01T18:45:45.517Z,2.50
2018-09-01T18:48:12.961Z,2.37
2018-09-01T18:50:40.372Z,2.53
2018-09-01T18:53:07.182Z,2.57
2018-09-01T18:55:33.859Z,2.20
2018-09-01T18:58:00.555Z,2.43
2018-09-01T19:00:28.040Z,2.40
2018-09-01T19:02:54.731Z,2.10
2018-09-01T19:05:21.465Z,1.97
2018-09-01T19:07:48.275Z,2.57
2018-09-01T19:10:15.081Z,2.27
2018-09-01T19:12:41.815Z,2.30
2018-09-01T19:15:09.207Z,2.23
2018-09-01T19:17:36.039Z,2.13
2018-09-01T19:20:02.875Z,2.30
2018-09-01T19:22:29.810Z,2.20
2018-09-01T19:24:56.652Z,2.77
2018-09-01T19:27:23.356Z,2.40
2018-09-01T19:29:50.127Z,2.53
2018-09-01T19:32:16.834Z,2.40
2018-09-01T19:34:43.523Z,2.20
2018-09-01T19:37:10.320Z,2.17
2018-09-01T19:39:36.958Z,2.57
2018-09-01T19:42:03.622Z,2.20
2018-09-01T19:44:31.098Z,2.40
2018-09-01T19:46:57.800Z,2.20
2018-09-01T19:49:24.436Z,2.10
2018-09-01T19:51:51.246Z,2.20
2018-09-01T19:54:17.872Z,2.20
2018-09-01T19:56:44.588Z,2.27
2018-09-01T19:59:11.247Z,2.63
2018-09-01T20:01:37.924Z,3.00
2018-09-01T20:04:04.641Z,2.60
2018-09-01T20:06:31.287Z,2.50
2018-09-01T20:08:57.921Z,2.30
2018-09-01T20:11:24.595Z,2.70
2018-09-01T20:13:52.000Z,2.50
2018-09-01T20:16:18.636Z,2.70
2018-09-01T20:18:48.800Z,2.40
2018-09-01T20:21:15.435Z,3.00
2018-09-01T20:23:42.096Z,2.77
2018-09-01T20:26:09.535Z,2.60
2018-09-01T20:28:36.196Z,2.60
2018-09-01T20:31:03.697Z,2.20
2018-09-01T20:33:31.089Z,2.40
2018-09-01T20:35:57.754Z,2.83
2018-09-01T20:38:24.544Z,2.60
2018-09-01T20:40:51.254Z,2.90
2018-09-01T20:43:17.917Z,2.57
2018-09-01T20:45:44.625Z,2.73
2018-09-01T20:48:12.095Z,2.30
2018-09-01T20:50:39.389Z,2.30
2018-09-01T20:53:06.237Z,2.33
2018-09-01T20:55:32.863Z,2.40
2018-09-01T20:57:59.564Z,2.30
2018-09-01T21:00:26.605Z,2.30
2018-09-01T21:02:53.230Z,2.40
2018-09-01T21:05:19.874Z,2.43
2018-09-01T21:07:46.754Z,2.77
2018-09-01T21:10:13.486Z,2.33
2018-09-01T21:12:40.108Z,2.60
2018-09-01T21:15:06.853Z,2.80
2018-09-01T21:17:33.510Z,2.47
2018-09-01T21:20:00.124Z,2.77
2018-09-01T21:22:26.845Z,2.80
2018-09-01T21:24:53.508Z,2.80
2018-09-01T21:27:20.201Z,2.90
2018-09-01T21:29:46.931Z,2.30
2018-09-01T21:32:13.603Z,2.40
2018-09-01T21:34:41.147Z,2.50
2018-09-01T21:37:07.847Z,2.83
2018-09-01T21:39:34.542Z,2.80
2018-09-01T21:42:01.323Z,3.30
2018-09-01T21:44:27.993Z,2.40
2018-09-01T21:46:54.659Z,2.57
2018-09-01T21:49:21.419Z,2.73
2018-09-01T21:51:48.055Z,2.67
2018-09-01T21:54:14.755Z,2.50
2018-09-01T21:56:42.182Z,2.43
2018-09-01T21:59:08.828Z,2.63
2018-09-01T22:01:35.464Z,2.47
2018-09-01T22:04:02.215Z,3.00
2018-09-01T22:06:28.881Z,2.30
2018-09-01T22:08:56.428Z,2.57
2018-09-01T22:11:23.067Z,2.50
2018-09-01T22:13:49.710Z,2.60
2018-09-01T22:16:17.136Z,2.77
2018-09-01T22:18:43.811Z,2.17
2018-09-01T22:21:11.327Z,2.23
2018-09-01T22:23:38.014Z,2.40
2018-09-01T22:26:05.424Z,2.60
2018-09-01T22:28:32.195Z,2.80
2018-09-01T22:30:59.611Z,2.50
2018-09-01T22:33:26.241Z,2.43
2018-09-01T22:35:53.067Z,2.40
2018-09-01T22:38:19.694Z,2.73
2018-09-01T22:40:46.394Z,2.43
2018-09-01T22:43:13.963Z,3.00
2018-09-01T22:45:41.390Z,2.67
2018-09-01T22:48:08.057Z,2.50
2018-09-01T22:50:34.792Z,2.30
2018-09-01T22:53:01.463Z,2.70
2018-09-01T22:55:28.870Z,2.70
2018-09-01T22:57:55.561Z,2.70
2018-09-01T23:00:22.264Z,2.57
2018-09-01T23:02:49.053Z,2.63
2018-09-01T23:05:15.728Z,2.77
2018-09-01T23:07:42.405Z,2.50
2018-09-01T23:10:09.812Z,2.93
2018-09-01T23:12:36.479Z,2.77
2018-09-01T23:15:03.196Z,2.90
2018-09-01T23:17:29.922Z,2.70
2018-09-01T23:19:56.575Z,2.90
2018-09-01T23:22:23.261Z,3.10
2018-09-01T23:24:50.038Z,3.40
2018-09-01T23:29:58.887Z,2.47
2018-09-01T23:32:25.547Z,3.07
2018-09-01T23:34:52.256Z,3.20
2018-09-01T23:37:19.066Z,3.17
2018-09-01T23:39:46.473Z,3.07
2018-09-01T23:42:13.114Z,3.20
2018-09-01T23:44:39.797Z,2.90
2018-09-01T23:47:06.719Z,3.10
2018-09-01T23:49:33.367Z,3.03
2018-09-01T23:52:00.075Z,3.00
2018-09-01T23:54:26.752Z,3.20
2018-09-01T23:56:54.198Z,3.07
2018-09-01T23:59:21.646Z,3.33
